createdAt,value
2022-09-20T00:02:28.397Z,100.00
2022-09-20T00:05:29.891Z,100.00
2022-09-20T00:08:32.064Z,100.00
2022-09-20T00:11:34.642Z,100.00
2022-09-20T00:14:37.772Z,100.00
2022-09-20T00:17:39.442Z,100.00
2022-09-20T00:20:44.998Z,100.00
2022-09-20T00:23:46.841Z,100.00
2022-09-20T00:26:48.644Z,100.00
2022-09-20T00:29:51.812Z,100.00
2022-09-20T00:32:53.383Z,100.00
2022-09-20T00:35:55.183Z,100.00
2022-09-20T00:38:56.835Z,100.00
2022-09-20T00:42:01.686Z,100.00
2022-09-20T00:45:05.571Z,100.00
2022-09-20T00:48:12.004Z,100.00
2022-09-20T00:51:15.822Z,100.00
2022-09-20T00:54:20.546Z,100.00
2022-09-20T00:57:22.716Z,100.00
2022-09-20T01:00:26.480Z,100.00
2022-09-20T01:03:30.189Z,100.00
2022-09-20T01:06:32.654Z,100.00
2022-09-20T01:09:34.256Z,100.00
2022-09-20T01:12:37.179Z,100.00
2022-09-20T01:15:40.689Z,100.00
2022-09-20T01:18:43.666Z,100.00
2022-09-20T01:21:47.775Z,100.00
2022-09-20T01:24:56.402Z,100.00
2022-09-20T01:27:59.403Z,100.00
2022-09-20T01:31:03.538Z,100.00
2022-09-20T01:34:09.751Z,100.00
2022-09-20T01:37:13.627Z,100.00
2022-09-20T01:40:20.317Z,100.00
2022-09-20T01:43:29.498Z,100.00
2022-09-20T01:46:31.921Z,100.00
2022-09-20T01:49:42.260Z,100.00
2022-09-20T01:52:57.563Z,100.00
2022-09-20T01:56:17.720Z,100.00
2022-09-20T01:59:41.648Z,100.00
2022-09-20T02:03:13.257Z,100.00
2022-09-20T02:06:23.374Z,100.00
2022-09-20T02:09:45.355Z,100.00
2022-09-20T02:12:55.170Z,100.00
2022-09-20T02:16:16.560Z,100.00
2022-09-20T02:19:28.223Z,100.00
2022-09-20T02:22:39.000Z,100.00
2022-09-20T02:25:53.153Z,100.00
2022-09-20T02:29:02.301Z,100.00
2022-09-20T02:32:12.785Z,100.00
2022-09-20T02:35:23.285Z,100.00
2022-09-20T02:38:42.849Z,100.00
2022-09-20T02:41:53.658Z,100.00
2022-09-20T02:45:00.892Z,100.00
2022-09-20T02:48:04.846Z,100.00
2022-09-20T02:51:14.150Z,100.00
2022-09-20T02:54:21.464Z,100.00
2022-09-20T02:57:26.786Z,100.00
2022-09-20T03:00:34.122Z,100.00
2022-09-20T03:03:43.471Z,100.00
2022-09-20T03:06:51.431Z,100.00
2022-09-20T03:10:00.149Z,100.00
2022-09-20T03:13:10.646Z,100.00
2022-09-20T03:16:21.380Z,100.00
2022-09-20T03:19:33.664Z,100.00
2022-09-20T03:22:41.112Z,100.00
2022-09-20T03:25:53.830Z,100.00
2022-09-20T03:28:59.735Z,100.00
2022-09-20T03:32:08.986Z,100.00
2022-09-20T03:35:19.693Z,100.00
2022-09-20T03:38:31.152Z,100.00
2022-09-20T03:41:50.733Z,100.00
2022-09-20T03:45:07.174Z,100.00
2022-09-20T03:48:34.922Z,100.00
2022-09-20T03:51:42.098Z,100.00
2022-09-20T03:55:04.192Z,100.00
2022-09-20T03:58:31.641Z,100.00
2022-09-20T04:01:41.391Z,100.00
2022-09-20T04:04:47.215Z,100.00
2022-09-20T04:07:56.382Z,100.00
2022-09-20T04:11:03.679Z,100.00
2022-09-20T04:14:11.741Z,100.00
2022-09-20T04:17:23.381Z,100.00
2022-09-20T04:20:32.509Z,100.00
2022-09-20T04:23:39.946Z,100.00
2022-09-20T04:26:45.222Z,100.00
2022-09-20T04:29:50.633Z,100.00
2022-09-20T04:32:55.857Z,100.00
2022-09-20T04:36:24.683Z,100.00
2022-09-20T04:39:35.732Z,100.00
2022-09-20T04:43:04.823Z,100.00
2022-09-20T04:46:27.814Z,100.00
2022-09-20T04:49:50.249Z,100.00
2022-09-20T04:53:14.824Z,100.00
2022-09-20T04:56:31.035Z,100.00
2022-09-20T04:59:43.618Z,100.00
2022-09-20T05:03:23.342Z,100.00
2022-09-20T05:06:45.135Z,100.00
2022-09-20T05:10:02.862Z,100.00
2022-09-20T05:13:23.581Z,100.00
2022-09-20T05:16:31.244Z,100.00
2022-09-20T05:19:38.008Z,100.00
2022-09-20T05:23:06.923Z,100.00
2022-09-20T05:26:20.706Z,100.00
2022-09-20T05:29:29.093Z,100.00
2022-09-20T05:32:34.155Z,100.00
2022-09-20T05:35:41.029Z,100.00
2022-09-20T05:38:47.820Z,100.00
2022-09-20T05:41:54.706Z,100.00
2022-09-20T05:45:04.269Z,100.00
2022-09-20T05:48:12.027Z,100.00
2022-09-20T05:51:16.723Z,100.00
2022-09-20T05:54:25.286Z,100.00
2022-09-20T05:57:35.642Z,100.00
2022-09-20T06:00:41.925Z,100.00
2022-09-20T06:03:45.690Z,100.00
2022-09-20T06:06:53.669Z,100.00
2022-09-20T06:10:25.710Z,100.00
2022-09-20T06:13:41.202Z,100.00
2022-09-20T06:16:49.226Z,100.00
2022-09-20T06:19:56.189Z,100.00
2022-09-20T06:22:59.496Z,100.00
2022-09-20T06:26:02.509Z,100.00
2022-09-20T06:29:09.426Z,100.00
2022-09-20T06:32:16.100Z,100.00
2022-09-20T06:35:17.622Z,100.00
2022-09-20T06:38:55.027Z,100.00
2022-09-20T06:41:58.047Z,100.00
2022-09-20T06:44:59.663Z,100.00
2022-09-20T06:48:02.855Z,100.00
2022-09-20T06:51:05.626Z,100.00
2022-09-20T06:54:11.483Z,100.00
2022-09-20T06:57:17.918Z,100.00
2022-09-20T07:00:19.824Z,100.00
2022-09-20T07:03:22.869Z,100.00
2022-09-20T07:06:24.534Z,100.00
2022-09-20T07:09:26.067Z,100.00
2022-09-20T07:12:29.424Z,100.00
2022-09-20T07:15:32.298Z,100.00
2022-09-20T07:18:35.436Z,100.00
2022-09-20T07:21:37.078Z,100.00
2022-09-20T07:24:39.173Z,100.00
2022-09-20T07:27:40.783Z,100.00
2022-09-20T07:30:42.989Z,100.00
2022-09-20T07:33:46.106Z,100.00
2022-09-20T07:36:47.840Z,100.00
2022-09-20T07:39:49.972Z,100.00
2022-09-20T07:42:56.028Z,100.00
2022-09-20T07:46:04.239Z,100.00
2022-09-20T07:49:07.744Z,100.00
2022-09-20T07:52:11.331Z,100.00
2022-09-20T07:55:12.800Z,100.00
2022-09-20T07:58:14.518Z,100.00
2022-09-20T08:01:16.300Z,100.00
2022-09-20T08:04:19.266Z,100.00
2022-09-20T08:07:21.164Z,100.00
2022-09-20T08:10:22.662Z,100.00
2022-09-20T08:16:47.517Z,100.00
2022-09-20T08:19:53.048Z,100.00
2022-09-20T08:23:19.512Z,100.00
2022-09-20T08:26:20.913Z,100.00
2022-09-20T08:29:22.523Z,100.00
2022-09-20T08:32:24.275Z,100.00
2022-09-20T08:35:29.704Z,100.00
2022-09-20T08:41:56.755Z,100.00
2022-09-20T08:44:59.413Z,100.00
2022-09-20T08:48:05.866Z,100.00
2022-09-20T08:51:12.616Z,100.00
2022-09-20T08:54:16.352Z,100.00
2022-09-20T08:57:20.412Z,100.00
2022-09-20T09:00:24.297Z,100.00
2022-09-20T09:03:27.063Z,100.00
2022-09-20T09:06:30.110Z,100.00
2022-09-20T09:09:37.626Z,100.00
2022-09-20T09:12:40.065Z,100.00
2022-09-20T09:15:43.880Z,100.00
2022-09-20T09:18:50.151Z,100.00
2022-09-20T09:21:56.222Z,100.00
2022-09-20T09:25:20.952Z,100.00
2022-09-20T09:28:24.883Z,100.00
2022-09-20T09:31:27.001Z,100.00
2022-09-20T09:34:29.858Z,100.00
2022-09-20T09:37:33.431Z,100.00
2022-09-20T09:40:35.035Z,100.00
2022-09-20T09:43:37.499Z,100.00
2022-09-20T09:46:40.304Z,100.00
2022-09-20T09:49:59.101Z,100.00
2022-09-20T09:53:10.265Z,100.00
2022-09-20T09:56:27.520Z,100.00
2022-09-20T09:59:49.212Z,100.00
2022-09-20T10:03:01.333Z,100.00
2022-09-20T10:06:07.736Z,100.00
2022-09-20T10:09:21.701Z,100.00
2022-09-20T10:12:37.001Z,100.00
2022-09-20T10:15:42.025Z,100.00
2022-09-20T10:18:48.903Z,100.00
2022-09-20T10:21:56.297Z,100.00
2022-09-20T10:25:03.709Z,100.00
2022-09-20T10:28:11.307Z,100.00
2022-09-20T10:31:21.189Z,100.00
2022-09-20T10:34:43.599Z,100.00
2022-09-20T10:37:51.564Z,100.00
2022-09-20T10:41:22.955Z,100.00
2022-09-20T10:44:33.866Z,100.00
2022-09-20T10:47:40.674Z,100.00
2022-09-20T10:50:45.696Z,98.63
2022-09-20T10:53:50.725Z,98.77
2022-09-20T10:57:00.200Z,98.11
2022-09-20T11:00:04.835Z,97.41
2022-09-20T11:03:14.213Z,95.72
2022-09-20T11:06:18.943Z,96.22
2022-09-20T11:09:23.609Z,96.68
2022-09-20T11:12:29.939Z,96.25
2022-09-20T11:15:35.540Z,94.74
2022-09-20T11:18:40.342Z,94.83
2022-09-20T11:21:44.978Z,94.71
2022-09-20T11:24:49.094Z,94.83
2022-09-20T11:27:54.882Z,95.60
2022-09-20T11:31:00.985Z,96.55
2022-09-20T11:34:08.739Z,97.15
2022-09-20T11:37:10.705Z,97.41
2022-09-20T11:40:16.113Z,97.77
2022-09-20T11:43:20.246Z,98.43
2022-09-20T11:46:24.903Z,98.71
2022-09-20T11:49:29.394Z,98.83
2022-09-20T11:52:50.555Z,98.55
2022-09-20T11:55:59.182Z,98.01
2022-09-20T11:59:03.887Z,97.86
2022-09-20T12:02:17.936Z,97.39
2022-09-20T12:05:25.518Z,97.42
2022-09-20T12:08:28.401Z,97.28
2022-09-20T12:11:31.560Z,96.98
2022-09-20T12:14:34.585Z,96.68
2022-09-20T12:17:54.894Z,95.18
2022-09-20T12:21:00.903Z,94.85
2022-09-20T12:24:20.357Z,94.30
2022-09-20T12:27:44.963Z,93.00
2022-09-20T12:30:47.983Z,93.38
2022-09-20T12:33:57.127Z,92.51
2022-09-20T12:37:19.770Z,90.89
2022-09-20T12:40:21.481Z,90.67
2022-09-20T12:43:23.844Z,90.65
2022-09-20T12:46:32.475Z,90.72
2022-09-20T12:49:57.715Z,91.02
2022-09-20T12:53:03.403Z,88.90
2022-09-20T12:56:06.298Z,87.88
2022-09-20T12:59:21.220Z,86.44
2022-09-20T13:02:43.803Z,86.49
2022-09-20T13:05:46.754Z,85.41
2022-09-20T13:08:50.448Z,85.45
2022-09-20T13:11:54.615Z,85.29
2022-09-20T13:14:56.333Z,84.53
2022-09-20T13:18:01.477Z,83.08
2022-09-20T13:21:07.068Z,82.81
2022-09-20T13:24:12.277Z,83.88
2022-09-20T13:27:19.213Z,82.41
2022-09-20T13:30:22.155Z,82.95
2022-09-20T13:33:25.587Z,81.23
2022-09-20T13:36:28.693Z,81.25
2022-09-20T13:39:36.312Z,79.44
2022-09-20T13:42:38.125Z,77.41
2022-09-20T13:45:43.204Z,78.75
2022-09-20T13:48:48.161Z,79.34
2022-09-20T13:51:52.802Z,79.74
2022-09-20T13:54:55.580Z,79.75
2022-09-20T13:57:59.536Z,78.90
2022-09-20T14:01:02.499Z,78.79
2022-09-20T14:04:08.554Z,79.56
2022-09-20T14:07:10.270Z,78.85
2022-09-20T14:10:27.078Z,78.44
2022-09-20T14:13:31.181Z,77.45
2022-09-20T14:16:34.121Z,77.09
2022-09-20T14:19:40.789Z,76.90
2022-09-20T14:22:43.259Z,76.78
2022-09-20T14:26:04.940Z,75.48
2022-09-20T14:29:36.967Z,76.88
2022-09-20T14:32:40.172Z,77.09
2022-09-20T14:35:48.139Z,77.78
2022-09-20T14:38:51.589Z,77.76
2022-09-20T14:41:53.843Z,78.05
2022-09-20T14:44:55.373Z,78.85
2022-09-20T14:47:58.599Z,78.62
2022-09-20T14:51:14.194Z,78.86
2022-09-20T14:54:23.686Z,78.95
2022-09-20T14:57:25.496Z,78.75
2022-09-20T15:00:27.421Z,78.69
2022-09-20T15:03:31.264Z,79.39
2022-09-20T15:06:36.375Z,79.29
2022-09-20T15:09:37.944Z,80.57
2022-09-20T15:12:41.418Z,80.78
2022-09-20T15:15:44.758Z,82.22
2022-09-20T15:18:47.022Z,83.08
2022-09-20T15:21:54.205Z,84.38
2022-09-20T15:24:56.466Z,85.78
2022-09-20T15:27:59.253Z,86.76
2022-09-20T15:31:02.350Z,87.74
2022-09-20T15:34:06.696Z,88.43
2022-09-20T15:37:10.316Z,89.27
2022-09-20T15:40:13.759Z,90.07
2022-09-20T15:43:17.112Z,91.04
2022-09-20T15:46:22.991Z,91.70
2022-09-20T15:49:24.587Z,91.99
2022-09-20T15:52:34.392Z,92.04
2022-09-20T15:55:36.999Z,91.96
2022-09-20T15:58:38.783Z,92.56
2022-09-20T16:01:41.257Z,92.90
2022-09-20T16:04:46.767Z,93.30
2022-09-20T16:07:51.699Z,93.54
2022-09-20T16:10:57.564Z,93.69
2022-09-20T16:14:00.117Z,93.45
2022-09-20T16:17:01.790Z,93.83
2022-09-20T16:20:03.833Z,93.61
2022-09-20T16:23:07.353Z,93.79
2022-09-20T16:26:17.896Z,93.77
2022-09-20T16:29:22.020Z,94.11
2022-09-20T16:32:23.976Z,93.95
2022-09-20T16:35:25.852Z,94.24
2022-09-20T16:38:29.271Z,94.43
2022-09-20T16:41:32.097Z,94.33
2022-09-20T16:44:34.895Z,93.99
2022-09-20T16:47:41.106Z,93.70
2022-09-20T16:50:42.851Z,93.41
2022-09-20T16:53:46.686Z,93.57
2022-09-20T16:56:49.749Z,92.96
2022-09-20T16:59:54.221Z,92.89
2022-09-20T17:02:56.549Z,93.20
2022-09-20T17:06:02.627Z,93.51
2022-09-20T17:09:06.143Z,93.47
2022-09-20T17:12:09.630Z,93.51
2022-09-20T17:15:13.286Z,93.78
2022-09-20T17:18:15.705Z,94.08
2022-09-20T17:21:17.701Z,94.10
2022-09-20T17:24:23.036Z,94.29
2022-09-20T17:27:25.916Z,94.44
2022-09-20T17:30:28.265Z,94.48
2022-09-20T17:33:31.460Z,94.55
2022-09-20T17:36:34.178Z,94.72
2022-09-20T17:39:38.410Z,94.88
2022-09-20T17:42:42.035Z,95.02
2022-09-20T17:45:44.540Z,94.82
2022-09-20T17:48:50.535Z,94.90
2022-09-20T17:51:53.121Z,95.15
2022-09-20T17:54:57.023Z,95.23
2022-09-20T17:57:58.710Z,95.39
2022-09-20T18:01:04.730Z,95.33
2022-09-20T18:04:07.665Z,95.52
2022-09-20T18:07:09.587Z,95.60
2022-09-20T18:10:16.196Z,95.85
2022-09-20T18:13:18.697Z,95.88
2022-09-20T18:16:21.402Z,96.00
2022-09-20T18:19:23.197Z,96.13
2022-09-20T18:22:25.146Z,96.43
2022-09-20T18:25:29.042Z,96.31
2022-09-20T18:28:33.380Z,96.37
2022-09-20T18:31:39.035Z,96.41
2022-09-20T18:34:41.561Z,96.39
2022-09-20T18:37:47.337Z,96.47
2022-09-20T18:40:55.729Z,96.86
2022-09-20T18:43:57.813Z,97.14
2022-09-20T18:47:01.420Z,97.36
2022-09-20T18:50:03.214Z,97.35
2022-09-20T18:53:05.093Z,97.51
2022-09-20T18:56:09.511Z,97.77
2022-09-20T18:59:16.900Z,97.68
2022-09-20T19:02:42.404Z,97.70
2022-09-20T19:05:46.656Z,97.63
2022-09-20T19:08:53.783Z,97.38
2022-09-20T19:12:00.813Z,97.08
2022-09-20T19:15:20.244Z,96.87
2022-09-20T19:18:30.195Z,96.62
2022-09-20T19:21:37.105Z,96.61
2022-09-20T19:24:46.975Z,96.55
2022-09-20T19:27:50.374Z,96.62
2022-09-20T19:30:52.242Z,96.54
2022-09-20T19:33:55.165Z,96.73
2022-09-20T19:37:08.266Z,96.76
2022-09-20T19:40:20.919Z,96.34
2022-09-20T19:43:31.375Z,96.76
2022-09-20T19:46:44.054Z,96.72
2022-09-20T19:49:50.115Z,96.52
2022-09-20T19:52:51.861Z,96.53
2022-09-20T19:55:55.176Z,96.38
2022-09-20T19:58:58.408Z,96.58
2022-09-20T20:02:00.489Z,96.52
2022-09-20T20:05:03.545Z,96.51
2022-09-20T20:08:14.305Z,96.61
2022-09-20T20:11:21.073Z,96.95
2022-09-20T20:14:29.612Z,96.76
2022-09-20T20:17:38.767Z,96.34
2022-09-20T20:20:44.490Z,96.31
2022-09-20T20:23:58.027Z,96.30
2022-09-20T20:26:59.579Z,96.93
2022-09-20T20:30:02.516Z,96.78
2022-09-20T20:33:05.982Z,96.99
2022-09-20T20:36:09.032Z,97.00
2022-09-20T20:39:10.709Z,97.02
2022-09-20T20:42:12.992Z,97.04
2022-09-20T20:45:16.098Z,96.97
2022-09-20T20:48:17.653Z,97.09
2022-09-20T20:51:20.243Z,96.85
2022-09-20T20:54:21.967Z,96.97
2022-09-20T20:57:23.811Z,96.61
2022-09-20T21:00:29.570Z,96.49
2022-09-20T21:03:31.147Z,96.44
2022-09-20T21:06:34.495Z,96.32
2022-09-20T21:09:36.021Z,96.30
2022-09-20T21:12:37.672Z,96.30
2022-09-20T21:15:41.604Z,96.32
2022-09-20T21:18:44.604Z,96.31
2022-09-20T21:21:47.441Z,96.41
2022-09-20T21:24:49.231Z,96.44
2022-09-20T21:27:50.767Z,96.50
2022-09-20T21:30:58.623Z,96.49
2022-09-20T21:34:04.218Z,96.34
2022-09-20T21:37:05.775Z,96.46
2022-09-20T21:40:07.693Z,96.66
2022-09-20T21:43:09.296Z,96.48
2022-09-20T21:46:13.411Z,96.28
2022-09-20T21:49:15.058Z,96.14
2022-09-20T21:52:16.635Z,95.90
2022-09-20T21:55:18.231Z,95.90
2022-09-20T21:58:19.753Z,95.88
2022-09-20T22:01:23.708Z,95.43
2022-09-20T22:04:26.369Z,95.69
2022-09-20T22:07:28.043Z,96.63
2022-09-20T22:10:29.853Z,96.15
2022-09-20T22:13:31.794Z,96.57
2022-09-20T22:16:35.680Z,96.61
2022-09-20T22:19:40.438Z,96.45
2022-09-20T22:22:42.002Z,95.84
2022-09-20T22:25:43.953Z,95.92
2022-09-20T22:28:45.566Z,95.55
2022-09-20T22:31:50.148Z,95.89
2022-09-20T22:34:51.885Z,95.80
2022-09-20T22:37:53.390Z,95.67
2022-09-20T22:40:55.593Z,95.68
2022-09-20T22:43:57.166Z,95.68
2022-09-20T22:47:00.101Z,96.28
2022-09-20T22:50:01.812Z,96.38
2022-09-20T22:53:12.576Z,95.98
2022-09-20T22:56:15.326Z,95.84
2022-09-20T22:59:17.189Z,95.83
2022-09-20T23:02:20.396Z,96.00
2022-09-20T23:05:22.196Z,95.62
2022-09-20T23:08:25.132Z,95.67
2022-09-20T23:11:27.572Z,95.55
2022-09-20T23:14:29.253Z,95.60
2022-09-20T23:17:32.224Z,96.10
2022-09-20T23:20:33.714Z,96.87
2022-09-20T23:23:36.633Z,96.65
2022-09-20T23:26:39.031Z,95.78
2022-09-20T23:29:40.816Z,96.06
2022-09-20T23:32:43.803Z,96.41
2022-09-20T23:35:45.892Z,96.64
2022-09-20T23:38:48.032Z,96.09
2022-09-20T23:41:52.390Z,96.36
2022-09-20T23:44:53.911Z,96.27
2022-09-20T23:47:56.730Z,96.31
2022-09-20T23:50:58.564Z,96.13
2022-09-20T23:54:00.116Z,96.07
2022-09-20T23:57:01.825Z,96.08
